Time;durP1;ratioP1;P1;durP2;ratioP2;P2;SDS_P1;SDS_P2;PMS_P1;PMS_P2;Temp;Humidity;BMP_temperature;BMP_pressure;BME280_temperature;BME280_humidity;BME280_pressure;Samples;Min_cycle;Max_cycle;Signal;HPM_P1;HPM_P2
2023/01/25 00:01:52;;;;;;;30.77;14.20;;;0.90;99.90;;;;;;4720431;30;20087;-74
2023/01/25 00:04:19;;;;;;;33.00;14.98;;;0.90;99.90;;;;;;4720395;30;20049;-74
2023/01/25 00:06:45;;;;;;;30.67;15.23;;;0.80;99.90;;;;;;4735776;30;20056;-74
2023/01/25 00:09:10;;;;;;;30.27;14.93;;;0.90;99.90;;;;;;4719799;30;20474;-74
2023/01/25 00:11:36;;;;;;;32.70;15.15;;;0.80;99.90;;;;;;4720106;30;20143;-74
2023/01/25 00:14:05;;;;;;;32.22;15.18;;;0.90;99.90;;;;;;4719856;30;20053;-74
2023/01/25 00:16:35;;;;;;;30.90;14.95;;;0.90;99.90;;;;;;4735683;30;20140;-74
2023/01/25 00:19:05;;;;;;;33.15;15.30;;;0.90;99.90;;;;;;4735681;30;20068;-74
2023/01/25 00:21:31;;;;;;;29.25;15.30;;;0.90;99.90;;;;;;4719709;30;20457;-74
2023/01/25 00:23:57;;;;;;;33.17;15.02;;;0.90;99.90;;;;;;4719953;30;20526;-74
2023/01/25 00:26:23;;;;;;;30.98;15.95;;;0.90;99.90;;;;;;4719602;30;20048;-74
2023/01/25 00:28:49;;;;;;;36.92;17.08;;;0.90;99.90;;;;;;4719901;30;20060;-74
2023/01/25 00:31:26;;;;;;;31.90;15.60;;;0.90;99.90;;;;;;4719831;30;20516;-74
2023/01/25 00:34:00;;;;;;;31.90;15.20;;;0.90;99.90;;;;;;4719885;30;20053;-74
2023/01/25 00:36:33;;;;;;;33.50;15.98;;;0.90;99.90;;;;;;4719834;30;20506;-74
2023/01/25 00:38:59;;;;;;;31.10;15.18;;;1.00;99.90;;;;;;4719588;30;20048;-74
2023/01/25 00:41:25;;;;;;;30.58;14.48;;;0.90;99.90;;;;;;4719542;30;20053;-74
2023/01/25 00:43:51;;;;;;;32.55;16.20;;;0.90;99.90;;;;;;4719881;30;20107;-74
2023/01/25 00:46:17;;;;;;;30.60;14.65;;;0.90;99.90;;;;;;4719640;30;20512;-74
2023/01/25 00:48:46;;;;;;;31.77;16.42;;;0.90;99.90;;;;;;4719915;30;20131;-74
2023/01/25 00:51:12;;;;;;;32.63;16.10;;;0.90;99.90;;;;;;4735208;30;20281;-74
2023/01/25 00:53:37;;;;;;;33.63;15.20;;;0.80;99.90;;;;;;4719594;30;20490;-74
2023/01/25 00:56:03;;;;;;;32.03;15.77;;;0.80;99.90;;;;;;4735230;30;20060;-74
2023/01/25 00:58:29;;;;;;;34.78;16.65;;;0.80;99.90;;;;;;4735344;30;20060;-74
2023/01/25 01:00:55;;;;;;;32.42;16.38;;;1.00;99.90;;;;;;4719478;30;20053;-74
2023/01/25 01:03:22;;;;;;;29.15;14.82;;;0.80;99.90;;;;;;4719298;30;20059;-74
2023/01/25 01:05:47;;;;;;;38.53;17.92;;;0.80;99.90;;;;;;4719248;30;20053;-74
2023/01/25 01:08:14;;;;;;;34.13;16.45;;;0.80;99.90;;;;;;4719604;30;20053;-74
2023/01/25 01:10:40;;;;;;;34.55;17.98;;;0.90;99.90;;;;;;4735041;30;20091;-74
2023/01/25 01:13:07;;;;;;;35.75;16.95;;;0.70;99.90;;;;;;4719659;30;20082;-74
2023/01/25 01:15:36;;;;;;;34.17;16.80;;;0.80;99.90;;;;;;4719421;30;20064;-74
2023/01/25 01:18:02;;;;;;;33.00;15.75;;;0.70;99.90;;;;;;4721076;30;20087;-74
2023/01/25 01:20:28;;;;;;;36.45;16.23;;;0.70;99.90;;;;;;4723064;30;20483;-74
2023/01/25 01:22:56;;;;;;;34.25;16.08;;;0.80;99.90;;;;;;4723081;30;20060;-74
2023/01/25 01:25:22;;;;;;;38.65;16.90;;;0.80;99.90;;;;;;4722818;30;20061;-74
2023/01/25 01:27:47;;;;;;;34.42;16.10;;;0.80;99.90;;;;;;4730020;30;20087;-74
2023/01/25 01:30:13;;;;;;;36.60;17.92;;;0.70;99.90;;;;;;4737070;30;20060;-74
2023/01/25 01:32:39;;;;;;;37.55;17.27;;;0.80;99.90;;;;;;4737015;30;20106;-74
2023/01/25 01:35:05;;;;;;;37.20;17.95;;;0.80;99.90;;;;;;4738442;30;20052;-74
2023/01/25 01:37:31;;;;;;;38.38;18.55;;;0.90;99.90;;;;;;4737115;30;20140;-74
2023/01/25 01:40:00;;;;;;;37.65;17.30;;;0.80;99.90;;;;;;4737376;30;20057;-74
2023/01/25 01:42:25;;;;;;;37.80;17.85;;;0.80;99.90;;;;;;4737987;30;20051;-74
2023/01/25 01:44:53;;;;;;;37.58;16.83;;;0.80;99.90;;;;;;4736882;30;20456;-74
2023/01/25 01:47:29;;;;;;;40.38;18.38;;;0.80;99.90;;;;;;4737215;30;20052;-74
2023/01/25 01:50:05;;;;;;;37.85;18.25;;;0.80;99.90;;;;;;4738199;30;20127;-74
2023/01/25 01:52:35;;;;;;;37.33;18.65;;;0.80;99.90;;;;;;4737250;30;20059;-74
2023/01/25 01:55:07;;;;;;;39.90;18.27;;;0.80;99.90;;;;;;4736762;30;20048;-74
2023/01/25 01:57:42;;;;;;;36.85;17.15;;;0.80;99.90;;;;;;4737249;30;20049;-74
2023/01/25 02:00:19;;;;;;;38.60;16.77;;;0.80;99.90;;;;;;4736740;30;20555;-74
2023/01/25 02:02:47;;;;;;;36.08;17.75;;;0.80;99.90;;;;;;4736951;30;20052;-74
2023/01/25 02:05:29;;;;;;;36.08;17.27;;;0.60;99.90;;;;;;4737791;30;20502;-74
2023/01/25 02:07:56;;;;;;;39.38;18.10;;;0.70;99.90;;;;;;4736778;30;20498;-74
2023/01/25 02:10:25;;;;;;;36.60;16.83;;;0.60;99.90;;;;;;4736511;30;20048;-74
2023/01/25 02:12:53;;;;;;;38.63;17.55;;;0.60;99.90;;;;;;4737724;30;20052;-74
2023/01/25 02:15:18;;;;;;;39.13;18.45;;;0.60;99.90;;;;;;4736458;30;20052;-74
2023/01/25 02:17:48;;;;;;;39.75;18.35;;;0.60;99.90;;;;;;4736457;30;20057;-74
2023/01/25 02:20:26;;;;;;;36.22;17.42;;;0.50;99.90;;;;;;4736234;30;20135;-74
2023/01/25 02:23:00;;;;;;;40.67;19.00;;;0.60;99.90;;;;;;4737461;30;20056;-74
2023/01/25 02:25:29;;;;;;;43.55;19.17;;;0.50;99.90;;;;;;4736396;30;20048;-74
2023/01/25 02:28:00;;;;;;;42.83;18.35;;;0.50;99.90;;;;;;4735917;30;20065;-74
2023/01/25 02:30:27;;;;;;;45.15;20.27;;;0.50;99.90;;;;;;4734817;30;20145;-74
2023/01/25 02:32:53;;;;;;;47.60;20.70;;;0.50;99.90;;;;;;4736225;30;20061;-74
2023/01/25 02:35:23;;;;;;;41.78;18.75;;;0.60;99.90;;;;;;4736415;30;20143;-74
2023/01/25 02:37:50;;;;;;;46.17;20.30;;;0.60;99.90;;;;;;4736163;30;20453;-74
2023/01/25 02:40:19;;;;;;;40.28;18.52;;;0.60;99.90;;;;;;4736111;30;20064;-74
2023/01/25 02:42:47;;;;;;;42.05;19.35;;;0.40;99.90;;;;;;4737324;30;20075;-74
2023/01/25 02:45:16;;;;;;;42.45;19.75;;;0.40;99.90;;;;;;4735876;30;20055;-74
2023/01/25 02:47:42;;;;;;;48.95;18.92;;;0.50;99.90;;;;;;4736140;30;20121;-74
2023/01/25 02:50:08;;;;;;;48.40;20.17;;;0.50;99.90;;;;;;4735798;30;20494;-74
2023/01/25 02:52:34;;;;;;;46.08;19.80;;;0.70;99.90;;;;;;4735898;30;20106;-74
2023/01/25 02:54:59;;;;;;;46.28;19.48;;;0.60;99.90;;;;;;4736043;30;20052;-74
2023/01/25 02:57:25;;;;;;;44.85;18.85;;;0.60;99.90;;;;;;4735859;30;20061;-74
2023/01/25 02:59:50;;;;;;;46.03;19.08;;;0.70;99.90;;;;;;4737023;30;20108;-74
2023/01/25 03:02:16;;;;;;;43.88;20.55;;;0.70;99.90;;;;;;4735581;30;20052;-74
2023/01/25 03:04:42;;;;;;;43.22;18.55;;;0.60;99.90;;;;;;4735852;30;20154;-74
2023/01/25 03:07:07;;;;;;;44.95;19.23;;;0.70;99.90;;;;;;4735434;30;20052;-74
2023/01/25 03:09:33;;;;;;;44.78;19.85;;;0.80;99.90;;;;;;4735679;30;20087;-74
2023/01/25 03:11:59;;;;;;;46.17;20.95;;;0.60;99.90;;;;;;4735691;30;20499;-74
2023/01/25 03:14:24;;;;;;;46.05;20.08;;;0.70;99.90;;;;;;4735622;30;20489;-74
2023/01/25 03:16:50;;;;;;;44.10;19.17;;;0.50;99.90;;;;;;4735378;30;20080;-74
2023/01/25 03:19:16;;;;;;;50.10;20.52;;;0.50;99.90;;;;;;4735372;30;20056;-75
2023/01/25 03:21:41;;;;;;;45.00;18.27;;;0.60;99.90;;;;;;4735626;30;20147;-74
2023/01/25 03:24:10;;;;;;;39.92;16.70;;;0.50;99.90;;;;;;4735138;30;20044;-74
2023/01/25 03:27:09;;;;;;;40.25;17.40;;;0.50;99.90;;;;;;4735365;30;20092;-74
2023/01/25 03:29:24;;;;;;;40.17;16.58;;;0.50;99.90;;;;;;4720438;30;20402;-74
2023/01/25 03:31:50;;;;;;;38.85;17.40;;;0.60;99.90;;;;;;4720900;30;20068;-74
2023/01/25 03:34:19;;;;;;;36.10;16.35;;;0.50;99.90;;;;;;4720597;30;20045;-74
2023/01/25 03:36:44;;;;;;;37.47;14.90;;;0.60;99.90;;;;;;4720618;30;20064;-74
2023/01/25 03:39:10;;;;;;;39.03;16.27;;;0.50;99.90;;;;;;4720831;30;20061;-74
2023/01/25 03:41:42;;;;;;;36.42;16.80;;;0.50;99.90;;;;;;4720337;30;20394;-74
2023/01/25 03:44:10;;;;;;;38.63;16.52;;;0.50;99.90;;;;;;4720679;30;20099;-74
2023/01/25 03:46:36;;;;;;;43.00;19.65;;;0.40;99.90;;;;;;4720413;30;20106;-74
2023/01/25 03:49:02;;;;;;;42.13;18.15;;;0.50;99.90;;;;;;4720192;30;20053;-74
2023/01/25 03:51:27;;;;;;;39.03;17.38;;;0.50;99.90;;;;;;4720673;30;20056;-74
2023/01/25 03:53:53;;;;;;;40.17;18.17;;;0.40;99.90;;;;;;4718390;30;20083;-74
2023/01/25 03:56:19;;;;;;;45.42;18.63;;;0.40;99.90;;;;;;4720231;30;20056;-74
2023/01/25 03:58:45;;;;;;;43.60;18.80;;;0.30;99.90;;;;;;4720404;30;20052;-74
2023/01/25 04:01:11;;;;;;;43.47;18.92;;;0.30;99.90;;;;;;4720353;30;20056;-74
2023/01/25 04:03:37;;;;;;;48.17;19.55;;;0.30;99.90;;;;;;4720158;30;20505;-74
2023/01/25 04:06:04;;;;;;;46.00;18.95;;;0.20;99.90;;;;;;4720433;30;20053;-74
2023/01/25 04:08:30;;;;;;;41.45;17.52;;;0.30;99.90;;;;;;4720137;30;20049;-74
2023/01/25 04:11:07;;;;;;;42.83;18.50;;;0.30;99.90;;;;;;4720073;30;20053;-74
2023/01/25 04:13:36;;;;;;;42.65;17.38;;;0.10;99.90;;;;;;4720180;30;20139;-74
2023/01/25 04:16:02;;;;;;;41.22;17.48;;;0.10;99.90;;;;;;4720175;30;20532;-74
2023/01/25 04:18:28;;;;;;;39.20;17.45;;;0.20;99.90;;;;;;4719800;30;20049;-74
2023/01/25 04:20:55;;;;;;;37.97;17.63;;;0.20;99.90;;;;;;4719637;30;20045;-74
2023/01/25 04:23:22;;;;;;;42.92;17.02;;;0.30;99.90;;;;;;4735437;30;20508;-74
2023/01/25 04:26:01;;;;;;;42.25;18.73;;;0.10;99.90;;;;;;4720020;30;20075;-74
2023/01/25 04:28:27;;;;;;;44.65;18.83;;;0.20;99.90;;;;;;4731780;30;20065;-74
2023/01/25 04:30:56;;;;;;;41.88;17.40;;;0.20;99.90;;;;;;4734317;30;20234;-74
2023/01/25 04:33:25;;;;;;;46.47;18.00;;;0.30;99.90;;;;;;4734673;30;20053;-74
2023/01/25 04:35:51;;;;;;;48.03;20.05;;;0.10;99.90;;;;;;4734434;30;20110;-74
2023/01/25 04:38:17;;;;;;;46.72;19.98;;;0.10;99.90;;;;;;4735545;30;20064;-74
2023/01/25 04:40:43;;;;;;;48.03;20.13;;;0.20;99.90;;;;;;4734471;30;20131;-74
2023/01/25 04:43:12;;;;;;;49.28;19.92;;;0.30;99.90;;;;;;4734226;30;20052;-74
2023/01/25 04:45:43;;;;;;;54.40;21.08;;;0.20;99.90;;;;;;4734515;30;20080;-74
2023/01/25 04:48:11;;;;;;;46.38;19.73;;;0.20;99.90;;;;;;4734014;30;20091;-74
2023/01/25 04:50:41;;;;;;;54.22;21.92;;;0.20;99.90;;;;;;4734013;30;20049;-74
2023/01/25 04:53:08;;;;;;;56.30;22.48;;;0.20;99.90;;;;;;4733708;30;20095;-74
2023/01/25 04:55:34;;;;;;;56.45;21.98;;;0.20;99.90;;;;;;4734071;30;20505;-74
2023/01/25 04:58:00;;;;;;;53.78;21.88;;;0.10;99.90;;;;;;4734146;30;20087;-74
2023/01/25 05:00:27;;;;;;;59.67;21.55;;;0.20;99.90;;;;;;4734333;30;20048;-74
2023/01/25 05:02:53;;;;;;;60.00;24.63;;;0.10;99.90;;;;;;4734160;30;20057;-74
2023/01/25 05:05:22;;;;;;;58.78;23.98;;;0.30;99.90;;;;;;4733956;30;20056;-74
2023/01/25 05:07:47;;;;;;;58.65;23.10;;;0.30;99.90;;;;;;4735252;30;20052;-74
2023/01/25 05:10:13;;;;;;;65.43;25.13;;;0.30;99.90;;;;;;4733759;30;20161;-74
2023/01/25 05:12:39;;;;;;;68.15;25.25;;;0.20;99.90;;;;;;4734309;30;20055;-74
2023/01/25 05:15:05;;;;;;;62.22;24.35;;;0.30;99.90;;;;;;4733963;30;20060;-74
2023/01/25 05:17:31;;;;;;;61.47;24.65;;;0.20;99.90;;;;;;4734952;30;20402;-74
2023/01/25 05:19:57;;;;;;;68.78;25.20;;;0.20;99.90;;;;;;4733855;30;20497;-74
2023/01/25 05:22:28;;;;;;;72.32;26.77;;;0.10;99.90;;;;;;4733845;30;20092;-74
2023/01/25 05:24:54;;;;;;;68.88;26.85;;;0.30;99.90;;;;;;4733942;30;20139;-74
2023/01/25 05:27:20;;;;;;;66.57;26.08;;;0.10;99.90;;;;;;4733691;30;20139;-74
2023/01/25 05:29:46;;;;;;;73.82;25.85;;;0.10;99.90;;;;;;4733643;30;20048;-74
2023/01/25 05:32:15;;;;;;;67.43;24.77;;;0.20;99.90;;;;;;4733764;30;20124;-74
2023/01/25 05:34:41;;;;;;;70.22;24.63;;;0.20;99.90;;;;;;4733717;30;20433;-74
2023/01/25 05:37:08;;;;;;;65.40;25.85;;;0.20;99.90;;;;;;4733806;30;20059;-74
2023/01/25 05:39:37;;;;;;;68.43;23.27;;;0.20;99.90;;;;;;4733794;30;20059;-74
2023/01/25 05:42:11;;;;;;;64.75;22.98;;;0.00;99.90;;;;;;4733793;30;20173;-74
2023/01/25 05:44:37;;;;;;;64.03;23.25;;;0.00;99.90;;;;;;4733582;30;20063;-74
2023/01/25 05:47:02;;;;;;;58.08;23.90;;;0.10;99.90;;;;;;4733716;30;20213;-74
2023/01/25 05:49:28;;;;;;;61.13;23.45;;;0.00;99.90;;;;;;4733496;30;20053;-74
2023/01/25 05:51:54;;;;;;;67.90;25.63;;;-0.10;99.90;;;;;;4733568;30;20053;-74
2023/01/25 05:54:19;;;;;;;63.70;25.27;;;-0.20;99.90;;;;;;4733613;30;20048;-74
2023/01/25 05:56:47;;;;;;;64.95;25.13;;;0.00;99.90;;;;;;4733734;30;20114;-74
2023/01/25 05:59:13;;;;;;;65.57;24.45;;;-0.10;99.90;;;;;;4733682;30;20068;-74
2023/01/25 06:01:38;;;;;;;75.22;25.92;;;0.00;99.90;;;;;;4733495;30;20074;-74
2023/01/25 06:04:05;;;;;;;72.75;25.27;;;-0.10;99.90;;;;;;4735200;30;20123;-73
2023/01/25 06:06:30;;;;;;;69.25;25.33;;;0.00;99.90;;;;;;4736661;30;20397;-74
2023/01/25 06:08:56;;;;;;;74.13;25.10;;;0.00;99.90;;;;;;4736635;30;20132;-74
2023/01/25 06:11:23;;;;;;;74.25;26.65;;;0.10;99.90;;;;;;4736582;30;20121;-74
2023/01/25 06:13:57;;;;;;;63.78;24.75;;;0.10;99.90;;;;;;4736432;30;20048;-73
2023/01/25 06:16:23;;;;;;;71.70;26.42;;;0.00;99.90;;;;;;4736460;30;20056;-74
2023/01/25 06:18:49;;;;;;;67.03;26.10;;;0.10;99.90;;;;;;4736388;30;20041;-74
2023/01/25 06:21:14;;;;;;;65.80;26.80;;;0.00;99.90;;;;;;4736478;30;20052;-73
2023/01/25 06:23:40;;;;;;;68.97;26.42;;;-0.10;99.90;;;;;;4736397;30;20059;-74
2023/01/25 06:26:14;;;;;;;76.70;27.23;;;-0.10;99.90;;;;;;4735967;30;20052;-74
2023/01/25 06:28:40;;;;;;;72.00;25.45;;;-0.10;99.90;;;;;;4736059;30;20482;-74
2023/01/25 06:31:08;;;;;;;73.60;27.23;;;0.00;99.90;;;;;;4736216;30;20064;-74
2023/01/25 06:33:35;;;;;;;76.57;27.48;;;-0.10;99.90;;;;;;4736195;30;20057;-74
2023/01/25 06:36:03;;;;;;;67.03;27.23;;;0.10;99.90;;;;;;4736224;30;20100;-74
2023/01/25 06:38:32;;;;;;;74.18;25.77;;;-0.10;99.90;;;;;;4735982;30;20072;-74
2023/01/25 06:41:04;;;;;;;68.75;25.02;;;0.10;99.90;;;;;;4736015;30;20052;-74
2023/01/25 06:43:33;;;;;;;73.25;25.20;;;0.20;99.90;;;;;;4736033;30;20060;-74
2023/01/25 06:46:01;;;;;;;65.45;25.80;;;0.10;99.90;;;;;;4735998;30;20084;-74
2023/01/25 06:48:28;;;;;;;73.72;25.77;;;0.00;99.90;;;;;;4736245;30;20057;-74
2023/01/25 06:51:02;;;;;;;74.00;25.98;;;0.20;99.90;;;;;;4735906;30;20049;-74
2023/01/25 06:53:30;;;;;;;79.00;28.45;;;0.00;99.90;;;;;;4736045;30;20053;-74
2023/01/25 06:55:57;;;;;;;84.00;30.52;;;0.00;99.90;;;;;;4736040;30;20045;-74
2023/01/25 06:58:23;;;;;;;76.85;28.27;;;0.20;99.90;;;;;;4736078;30;20091;-74
2023/01/25 07:00:48;;;;;;;87.20;30.92;;;0.10;99.90;;;;;;4735891;30;20478;-74
2023/01/25 07:03:14;;;;;;;80.43;27.35;;;0.10;99.90;;;;;;4735823;30;20056;-74
2023/01/25 07:05:43;;;;;;;73.18;26.63;;;0.20;99.90;;;;;;4735325;30;20136;-74
2023/01/25 07:08:08;;;;;;;71.00;24.92;;;0.10;99.90;;;;;;4736851;30;20489;-74
2023/01/25 07:10:34;;;;;;;61.30;24.33;;;0.00;99.90;;;;;;4735308;30;20562;-74
2023/01/25 07:12:59;;;;;;;65.43;22.80;;;0.10;99.90;;;;;;4735594;30;20052;-74
2023/01/25 07:15:25;;;;;;;64.28;23.15;;;0.10;99.90;;;;;;4735113;30;20068;-74
2023/01/25 07:17:51;;;;;;;65.18;22.17;;;0.20;99.90;;;;;;4735260;30;20486;-74
2023/01/25 07:20:16;;;;;;;74.65;25.55;;;0.20;99.90;;;;;;4735275;30;20056;-74
2023/01/25 07:22:42;;;;;;;69.15;24.58;;;0.10;99.90;;;;;;4735327;30;20128;-74
2023/01/25 07:25:08;;;;;;;76.90;25.92;;;0.00;99.90;;;;;;4735524;30;20060;-74
2023/01/25 07:27:34;;;;;;;78.25;27.10;;;0.00;99.90;;;;;;4735101;30;20100;-74
2023/01/25 07:30:16;;;;;;;66.15;25.48;;;0.00;99.90;;;;;;4735433;30;20461;-74
2023/01/25 07:32:42;;;;;;;73.57;27.30;;;0.10;99.90;;;;;;4735133;30;20064;-74
2023/01/25 07:35:08;;;;;;;70.80;27.02;;;0.10;99.90;;;;;;4735315;30;20044;-74
2023/01/25 07:37:33;;;;;;;72.15;26.23;;;0.00;99.90;;;;;;4735552;30;20413;-74
2023/01/25 07:39:59;;;;;;;71.68;25.80;;;0.10;99.90;;;;;;4735012;30;20067;-74
2023/01/25 07:42:25;;;;;;;77.70;28.27;;;0.00;99.90;;;;;;4735044;30;20139;-72
2023/01/25 07:44:50;;;;;;;73.47;27.95;;;-0.10;99.90;;;;;;4735120;30;20056;-74
2023/01/25 07:47:16;;;;;;;72.80;27.08;;;0.00;99.90;;;;;;4734633;30;20504;-74
2023/01/25 07:49:42;;;;;;;79.28;27.38;;;-0.10;99.90;;;;;;4734588;30;20095;-75
2023/01/25 07:52:07;;;;;;;73.32;28.02;;;-0.10;99.90;;;;;;4743710;30;20043;-74
2023/01/25 07:54:33;;;;;;;72.93;28.20;;;-0.10;99.90;;;;;;4734105;30;20071;-74
2023/01/25 07:56:59;;;;;;;70.22;26.98;;;0.00;99.90;;;;;;4733471;30;20048;-73
2023/01/25 07:59:25;;;;;;;73.32;26.55;;;-0.10;99.90;;;;;;4733921;30;20056;-74
2023/01/25 08:01:50;;;;;;;76.78;28.15;;;0.00;99.90;;;;;;4734530;30;20064;-73
2023/01/25 08:04:16;;;;;;;74.78;28.50;;;0.00;99.90;;;;;;4734242;30;20513;-73
2023/01/25 08:06:45;;;;;;;74.82;27.98;;;-0.10;99.90;;;;;;4734359;30;20055;-73
2023/01/25 08:09:18;;;;;;;67.85;26.35;;;0.00;99.90;;;;;;4734170;30;20468;-73
2023/01/25 08:11:44;;;;;;;77.15;28.25;;;-0.10;99.90;;;;;;4734365;30;20064;-74
2023/01/25 08:14:10;;;;;;;77.47;27.40;;;-0.10;99.90;;;;;;4734076;30;20052;-73
2023/01/25 08:16:36;;;;;;;76.13;27.85;;;0.00;99.90;;;;;;4734517;30;20060;-73
2023/01/25 08:19:02;;;;;;;77.10;27.40;;;0.00;99.90;;;;;;4734115;30;20053;-73
2023/01/25 08:21:31;;;;;;;76.97;26.38;;;-0.10;99.90;;;;;;4734431;30;20052;-73
2023/01/25 08:23:59;;;;;;;81.82;30.33;;;0.10;99.90;;;;;;4733988;30;20106;-74
2023/01/25 08:26:25;;;;;;;79.57;28.77;;;0.10;99.90;;;;;;4733893;30;20056;-74
2023/01/25 08:28:52;;;;;;;73.93;28.05;;;0.10;99.90;;;;;;4719178;30;20391;-74
2023/01/25 08:31:24;;;;;;;80.55;30.63;;;0.10;99.90;;;;;;4735320;30;20052;-73
2023/01/25 08:33:53;;;;;;;81.13;27.88;;;0.10;99.90;;;;;;4719315;30;20131;-73
2023/01/25 08:36:19;;;;;;;87.47;31.02;;;0.10;99.90;;;;;;4719268;30;20059;-73
2023/01/25 08:38:46;;;;;;;79.38;28.80;;;0.00;99.90;;;;;;4735103;30;20116;-73
2023/01/25 08:41:16;;;;;;;91.45;31.55;;;0.10;99.90;;;;;;4719244;30;20063;-73
2023/01/25 08:43:43;;;;;;;86.10;31.27;;;0.10;99.90;;;;;;4719092;30;20049;-73
2023/01/25 08:46:09;;;;;;;79.70;29.77;;;0.20;99.90;;;;;;4719459;30;20056;-74
2023/01/25 08:48:35;;;;;;;76.75;30.25;;;0.20;99.90;;;;;;4719135;30;20091;-73
2023/01/25 08:51:00;;;;;;;78.85;29.67;;;0.10;99.90;;;;;;4718877;30;20084;-73
2023/01/25 08:53:28;;;;;;;89.78;30.67;;;0.00;99.90;;;;;;4735176;30;20048;-73
2023/01/25 08:55:53;;;;;;;81.40;29.23;;;0.20;99.90;;;;;;4736400;30;20051;-73
2023/01/25 08:58:21;;;;;;;82.53;28.38;;;0.20;99.90;;;;;;4736446;30;20060;-73
2023/01/25 09:00:47;;;;;;;83.35;29.45;;;0.20;99.90;;;;;;4736641;30;20096;-73
2023/01/25 09:03:13;;;;;;;86.35;29.30;;;0.30;99.90;;;;;;4736542;30;20044;-73
2023/01/25 09:05:42;;;;;;;85.88;29.88;;;0.20;99.90;;;;;;4736251;30;20056;-73
2023/01/25 09:08:09;;;;;;;91.13;29.85;;;0.20;99.90;;;;;;4734512;30;20106;-73
2023/01/25 09:10:38;;;;;;;77.70;28.80;;;0.30;99.90;;;;;;4734533;30;20708;-75
2023/01/25 09:13:04;;;;;;;84.22;28.98;;;0.30;99.90;;;;;;4736236;30;20052;-75
2023/01/25 09:15:30;;;;;;;83.20;28.23;;;0.30;99.90;;;;;;4736660;30;20052;-74
2023/01/25 09:17:56;;;;;;;86.32;29.48;;;0.30;99.90;;;;;;4736427;30;20048;-73
2023/01/25 09:20:22;;;;;;;84.05;26.70;;;0.40;99.90;;;;;;4736429;30;20505;-72
2023/01/25 09:22:48;;;;;;;75.18;25.42;;;0.30;99.90;;;;;;4736667;30;20044;-73
2023/01/25 09:25:14;;;;;;;91.30;29.80;;;0.20;99.90;;;;;;4736180;30;20422;-73
2023/01/25 09:27:40;;;;;;;88.97;29.67;;;0.30;99.90;;;;;;4742738;30;20146;-74
2023/01/25 09:30:07;;;;;;;74.80;24.52;;;0.40;99.90;;;;;;4751196;30;20049;-74
2023/01/25 09:32:35;;;;;;;82.82;27.75;;;0.30;99.90;;;;;;4750569;30;20135;-74
2023/01/25 09:35:05;;;;;;;86.53;29.17;;;0.40;99.90;;;;;;4752587;30;20052;-74
2023/01/25 09:37:37;;;;;;;85.97;28.38;;;0.30;99.90;;;;;;4751375;30;20062;-74
2023/01/25 09:40:03;;;;;;;90.13;30.90;;;0.50;99.90;;;;;;4754333;30;20130;-74
2023/01/25 09:42:59;;;;;;;89.07;28.30;;;0.40;99.90;;;;;;4755133;30;20115;-74
2023/01/25 09:45:33;;;;;;;85.45;28.23;;;0.50;99.90;;;;;;4754534;30;20052;-74
2023/01/25 09:48:30;;;;;;;89.07;27.15;;;0.30;99.90;;;;;;4755787;30;20064;-74
2023/01/25 09:51:23;;;;;;;89.00;30.17;;;0.30;99.90;;;;;;4754396;30;20060;-74
2023/01/25 09:53:50;;;;;;;87.55;27.35;;;0.50;99.90;;;;;;4754335;30;20462;-74
2023/01/25 09:56:23;;;;;;;88.95;26.77;;;0.50;99.90;;;;;;4754124;30;20052;-74
2023/01/25 09:58:52;;;;;;;88.63;30.77;;;0.50;99.90;;;;;;4754486;30;20098;-74
2023/01/25 10:01:36;;;;;;;94.93;29.70;;;0.40;99.90;;;;;;4754496;30;20394;-74
2023/01/25 10:04:13;;;;;;;89.95;28.50;;;0.40;99.90;;;;;;4754337;30;20502;-74
2023/01/25 10:06:41;;;;;;;98.70;30.00;;;0.50;99.90;;;;;;4754064;30;20059;-74
2023/01/25 10:09:20;;;;;;;84.90;26.92;;;0.50;99.90;;;;;;4754246;30;20086;-74
2023/01/25 10:11:46;;;;;;;90.22;28.35;;;0.50;99.90;;;;;;4754351;30;20059;-74
2023/01/25 10:14:15;;;;;;;95.10;29.58;;;0.60;99.90;;;;;;4754250;30;20059;-74
2023/01/25 10:16:46;;;;;;;91.15;26.33;;;0.50;99.90;;;;;;4753970;30;20408;-74
2023/01/25 10:19:21;;;;;;;88.47;27.73;;;0.60;99.90;;;;;;4755005;30;20064;-74
2023/01/25 10:22:02;;;;;;;96.90;29.13;;;0.50;99.90;;;;;;4754144;30;20083;-74
2023/01/25 10:24:56;;;;;;;88.80;25.63;;;0.60;99.90;;;;;;4754143;30;20070;-74
2023/01/25 10:27:32;;;;;;;95.05;27.52;;;0.60;99.90;;;;;;4753664;30;20056;-74
2023/01/25 10:30:04;;;;;;;87.88;26.00;;;0.60;99.90;;;;;;4753634;30;20528;-74
2023/01/25 10:32:32;;;;;;;92.30;28.43;;;0.60;99.90;;;;;;4753755;30;20052;-74
2023/01/25 10:35:16;;;;;;;88.80;26.48;;;0.70;99.90;;;;;;4753689;30;20134;-74
2023/01/25 10:37:42;;;;;;;92.82;26.10;;;0.60;99.90;;;;;;4753695;30;20182;-74
2023/01/25 10:40:11;;;;;;;89.65;27.30;;;0.70;99.90;;;;;;4753525;30;20048;-74
2023/01/25 10:42:44;;;;;;;115.43;30.88;;;0.80;99.90;;;;;;4753743;30;20485;-74
2023/01/25 10:45:11;;;;;;;92.07;27.70;;;0.70;99.90;;;;;;4754793;30;20063;-74
2023/01/25 10:47:41;;;;;;;101.85;29.75;;;0.60;99.90;;;;;;4754828;30;20294;-74
2023/01/25 10:50:07;;;;;;;107.55;29.83;;;0.80;99.90;;;;;;4752398;30;20560;-74
2023/01/25 10:52:37;;;;;;;113.15;28.13;;;0.70;99.90;;;;;;4753481;30;20056;-74
2023/01/25 10:55:21;;;;;;;103.70;31.42;;;0.80;99.90;;;;;;4753303;30;20063;-74
2023/01/25 10:58:28;;;;;;;112.93;32.55;;;0.70;99.90;;;;;;4753645;30;20055;-74
2023/01/25 11:00:54;;;;;;;103.63;28.33;;;0.70;99.90;;;;;;4753247;30;20060;-74
2023/01/25 11:03:20;;;;;;;106.30;30.23;;;0.90;99.90;;;;;;4754428;30;20052;-74
2023/01/25 11:06:05;;;;;;;100.35;30.27;;;0.80;99.90;;;;;;4754625;30;20055;-74
2023/01/25 11:08:36;;;;;;;96.85;27.75;;;0.90;99.90;;;;;;4753071;30;20052;-74
2023/01/25 11:11:31;;;;;;;116.20;30.55;;;0.90;99.90;;;;;;4753064;30;20056;-74
2023/01/25 11:13:57;;;;;;;107.25;28.77;;;1.00;99.90;;;;;;4753037;30;20127;-74
2023/01/25 11:16:36;;;;;;;102.18;29.38;;;0.90;99.90;;;;;;4753193;30;20156;-74
2023/01/25 11:19:02;;;;;;;96.22;27.65;;;0.80;99.90;;;;;;4754443;30;20048;-74
2023/01/25 11:21:31;;;;;;;125.55;33.47;;;1.00;99.90;;;;;;4752734;30;20485;-74
2023/01/25 11:24:07;;;;;;;122.03;31.98;;;1.00;99.90;;;;;;4754264;30;20059;-74
2023/01/25 11:26:36;;;;;;;107.18;29.23;;;1.00;99.90;;;;;;4752871;30;20517;-74
2023/01/25 11:29:19;;;;;;;120.65;32.92;;;1.10;99.90;;;;;;4737921;30;20513;-74
2023/01/25 11:31:53;;;;;;;120.78;30.40;;;0.90;99.90;;;;;;4737988;30;20060;-74
2023/01/25 11:34:23;;;;;;;104.72;30.20;;;1.10;99.90;;;;;;4737992;30;20099;-74
2023/01/25 11:37:19;;;;;;;115.53;29.90;;;0.90;99.90;;;;;;4754097;30;20497;-74
2023/01/25 11:40:05;;;;;;;106.72;29.67;;;1.10;99.90;;;;;;4754002;30;20055;-74
2023/01/25 11:43:01;;;;;;;110.05;29.58;;;1.00;99.90;;;;;;4738109;30;20083;-74
2023/01/25 11:46:01;;;;;;;120.03;32.65;;;1.10;99.90;;;;;;4738067;30;20047;-74
2023/01/25 11:49:04;;;;;;;114.93;30.42;;;1.00;99.90;;;;;;4700530;30;20064;-74
2023/01/25 11:51:59;;;;;;;119.93;33.80;;;1.20;99.90;;;;;;4737899;30;20497;-74
2023/01/25 11:54:43;;;;;;;111.30;31.55;;;1.10;99.90;;;;;;4725298;30;20072;-74
2023/01/25 11:57:20;;;;;;;119.72;30.27;;;1.00;99.90;;;;;;4737603;30;20131;-74
2023/01/25 11:59:55;;;;;;;127.82;31.38;;;1.20;99.90;;;;;;4737498;30;20055;-74
2023/01/25 12:02:26;;;;;;;128.02;32.20;;;1.20;99.90;;;;;;4737571;30;20064;-74
2023/01/25 12:05:17;;;;;;;123.15;31.98;;;1.10;99.90;;;;;;4737459;30;20087;-74
2023/01/25 12:08:13;;;;;;;122.80;34.05;;;1.20;99.90;;;;;;4737454;30;20060;-74
2023/01/25 12:11:05;;;;;;;128.55;33.25;;;1.40;99.90;;;;;;4737329;30;20059;-74
2023/01/25 12:14:01;;;;;;;129.90;35.40;;;1.20;99.90;;;;;;4737328;30;20052;-74
2023/01/25 12:16:32;;;;;;;147.57;33.00;;;1.30;99.90;;;;;;4737544;30;20402;-74
2023/01/25 12:19:11;;;;;;;127.50;34.42;;;1.30;99.90;;;;;;4737456;30;20097;-74
2023/01/25 12:22:04;;;;;;;138.48;37.13;;;1.50;99.90;;;;;;4737519;30;20059;-74
2023/01/25 12:24:38;;;;;;;128.25;34.30;;;1.40;99.90;;;;;;4737188;30;20044;-74
2023/01/25 12:27:19;;;;;;;130.73;35.78;;;1.40;99.90;;;;;;4739018;30;20064;-76
2023/01/25 12:29:57;;;;;;;139.32;35.50;;;1.50;99.90;;;;;;4751934;30;20513;-76
2023/01/25 12:32:37;;;;;;;136.50;33.22;;;1.50;99.90;;;;;;4751725;30;20052;-76
2023/01/25 12:35:24;;;;;;;129.02;31.80;;;1.60;99.90;;;;;;4752017;30;20112;-74
2023/01/25 12:37:54;;;;;;;121.70;31.33;;;1.60;99.90;;;;;;4751731;30;20056;-74
2023/01/25 12:40:39;;;;;;;126.13;33.53;;;1.70;99.90;;;;;;4751913;30;20498;-74
2023/01/25 12:43:14;;;;;;;126.57;37.28;;;1.70;99.90;;;;;;4751839;30;20531;-75
2023/01/25 12:45:42;;;;;;;125.88;36.03;;;1.70;99.90;;;;;;4751918;30;20052;-74
2023/01/25 12:48:24;;;;;;;129.07;35.78;;;1.60;99.90;;;;;;4751654;30;20052;-74
2023/01/25 12:50:58;;;;;;;126.32;35.13;;;1.60;99.90;;;;;;4751634;30;20048;-74